createdAt,value
2022-10-16T00:01:31.574Z,11.80
2022-10-16T00:04:01.346Z,11.80
2022-10-16T00:06:29.843Z,11.70
2022-10-16T00:08:57.341Z,11.80
2022-10-16T00:11:27.869Z,11.70
2022-10-16T00:13:58.645Z,11.70
2022-10-16T00:16:25.586Z,11.70
2022-10-16T00:18:52.530Z,11.70
2022-10-16T00:21:22.792Z,11.70
2022-10-16T00:23:55.140Z,11.70
2022-10-16T00:26:22.415Z,11.60
2022-10-16T00:28:50.952Z,11.70
2022-10-16T00:31:20.026Z,11.70
2022-10-16T00:33:46.962Z,11.60
2022-10-16T00:36:17.486Z,11.60
2022-10-16T00:38:44.932Z,11.60
2022-10-16T00:41:17.469Z,11.60
2022-10-16T00:43:51.983Z,11.60
2022-10-16T00:46:28.683Z,11.60
2022-10-16T00:49:11.223Z,11.50
2022-10-16T00:51:41.585Z,11.50
2022-10-16T00:54:18.893Z,11.50
2022-10-16T00:56:47.103Z,11.50
2022-10-16T00:59:25.553Z,11.50
2022-10-16T01:01:53.354Z,11.60
2022-10-16T01:04:20.638Z,11.60
2022-10-16T01:07:08.258Z,11.60
2022-10-16T01:09:44.109Z,11.50
2022-10-16T01:12:28.696Z,11.50
2022-10-16T01:15:05.647Z,11.60
2022-10-16T01:17:35.978Z,11.60
2022-10-16T01:20:11.538Z,11.60
2022-10-16T01:22:53.822Z,11.60
2022-10-16T01:25:52.913Z,11.60
2022-10-16T01:28:26.566Z,11.60
2022-10-16T01:31:01.343Z,11.60
2022-10-16T01:33:47.879Z,11.60
2022-10-16T01:36:23.908Z,11.60
2022-10-16T01:38:57.817Z,11.70
2022-10-16T01:41:57.531Z,11.80
2022-10-16T01:44:33.282Z,11.70
2022-10-16T01:47:05.038Z,11.80
2022-10-16T01:49:37.720Z,11.80
2022-10-16T01:52:11.931Z,11.80
2022-10-16T01:54:45.227Z,11.80
2022-10-16T01:57:16.681Z,11.80
2022-10-16T01:59:51.092Z,11.80
2022-10-16T02:02:23.245Z,11.80
2022-10-16T02:05:02.712Z,11.80
2022-10-16T02:07:32.625Z,11.80
2022-10-16T02:10:04.993Z,11.80
2022-10-16T02:12:41.868Z,11.80
2022-10-16T02:15:12.194Z,11.80
2022-10-16T02:17:42.418Z,11.70
2022-10-16T02:20:12.332Z,11.70
2022-10-16T02:22:51.466Z,11.80
2022-10-16T02:25:43.189Z,11.80
2022-10-16T02:28:27.369Z,11.70
2022-10-16T02:31:11.591Z,11.80
2022-10-16T02:33:44.579Z,11.70
2022-10-16T02:36:15.107Z,11.70
2022-10-16T02:38:44.084Z,11.70
2022-10-16T02:41:14.320Z,11.80
2022-10-16T02:43:44.241Z,11.80
2022-10-16T02:46:14.151Z,11.80
2022-10-16T02:48:43.613Z,11.80
2022-10-16T02:51:13.986Z,11.80
2022-10-16T02:53:44.514Z,11.70
2022-10-16T02:56:14.773Z,11.80
2022-10-16T02:58:45.146Z,11.70
2022-10-16T03:01:16.095Z,11.80
2022-10-16T03:03:45.702Z,11.80
2022-10-16T03:06:15.310Z,11.80
2022-10-16T03:08:44.924Z,11.80
2022-10-16T03:11:14.223Z,11.90
2022-10-16T03:13:44.441Z,11.90
2022-10-16T03:16:14.668Z,11.80
2022-10-16T03:18:44.895Z,11.90
2022-10-16T03:21:14.809Z,11.90
2022-10-16T03:23:44.106Z,11.90
2022-10-16T03:26:14.019Z,12.00
2022-10-16T03:28:43.655Z,11.90
2022-10-16T03:31:13.283Z,12.00
2022-10-16T03:33:43.145Z,12.00
2022-10-16T03:36:12.143Z,12.00
2022-10-16T03:38:41.446Z,12.10
2022-10-16T03:41:11.362Z,12.10
2022-10-16T03:43:40.963Z,12.10
2022-10-16T03:46:09.646Z,12.20
2022-10-16T03:48:38.537Z,12.20
2022-10-16T03:51:07.637Z,12.20
2022-10-16T03:53:36.261Z,12.20
2022-10-16T03:56:05.633Z,12.20
2022-10-16T03:58:35.547Z,12.20
2022-10-16T04:01:05.481Z,12.20
2022-10-16T04:03:34.141Z,12.20
2022-10-16T04:06:03.983Z,12.20
2022-10-16T04:08:36.734Z,12.20
2022-10-16T04:11:06.967Z,12.30
2022-10-16T04:13:34.207Z,12.30
2022-10-16T04:16:01.430Z,12.30
2022-10-16T04:18:28.383Z,12.30
2022-10-16T04:20:55.815Z,12.30
2022-10-16T04:23:24.034Z,12.30
2022-10-16T04:25:51.762Z,12.30
2022-10-16T04:28:18.739Z,12.40
2022-10-16T04:30:45.753Z,12.40
2022-10-16T04:33:13.932Z,12.40
2022-10-16T04:35:40.818Z,12.40
2022-10-16T04:38:07.722Z,12.40
2022-10-16T04:40:37.082Z,12.40
2022-10-16T04:43:05.269Z,12.40
2022-10-16T04:45:32.574Z,12.50
2022-10-16T04:48:00.365Z,12.50
2022-10-16T04:50:27.610Z,12.50
2022-10-16T04:52:54.545Z,12.50
2022-10-16T04:55:21.492Z,12.40
2022-10-16T04:57:48.397Z,12.50
2022-10-16T05:00:15.436Z,12.50
2022-10-16T05:02:42.376Z,12.50
2022-10-16T05:05:09.558Z,12.60
2022-10-16T05:07:36.502Z,12.50
2022-10-16T05:10:03.528Z,12.50
2022-10-16T05:12:30.486Z,12.50
2022-10-16T05:14:59.795Z,12.50
2022-10-16T05:17:27.938Z,12.50
2022-10-16T05:19:55.412Z,12.50
2022-10-16T05:22:22.451Z,12.60
2022-10-16T05:24:49.398Z,12.60
2022-10-16T05:27:20.058Z,12.60
2022-10-16T05:29:48.383Z,12.60
2022-10-16T05:32:17.162Z,12.70
2022-10-16T05:34:44.459Z,12.60
2022-10-16T05:37:12.596Z,12.70
2022-10-16T05:39:40.296Z,12.70
2022-10-16T05:42:07.262Z,12.70
2022-10-16T05:47:06.199Z,12.70
2022-10-16T05:49:34.867Z,12.80
2022-10-16T05:52:03.659Z,12.70
2022-10-16T05:54:30.558Z,12.80
2022-10-16T05:56:57.452Z,12.80
2022-10-16T05:59:24.423Z,12.80
2022-10-16T06:01:51.302Z,12.80
2022-10-16T06:04:18.232Z,12.80
2022-10-16T06:06:45.129Z,12.80
2022-10-16T06:09:12.111Z,12.90
2022-10-16T06:11:39.031Z,12.90
2022-10-16T06:14:08.105Z,12.90
2022-10-16T06:19:13.115Z,12.90
2022-10-16T06:21:40.056Z,13.00
2022-10-16T06:24:07.129Z,13.00
2022-10-16T06:26:34.125Z,13.00
2022-10-16T06:29:01.572Z,13.00
2022-10-16T06:31:32.236Z,13.00
2022-10-16T06:33:59.873Z,13.00
2022-10-16T06:36:27.695Z,13.10
2022-10-16T06:38:54.883Z,13.10
2022-10-16T06:41:23.708Z,13.10
2022-10-16T06:43:50.724Z,13.10
2022-10-16T06:46:21.057Z,13.10
2022-10-16T06:48:48.328Z,13.20
2022-10-16T06:51:17.527Z,13.20
2022-10-16T06:54:04.990Z,13.20
2022-10-16T06:56:33.263Z,13.30
2022-10-16T06:59:00.653Z,13.30
2022-10-16T07:01:28.060Z,13.40
2022-10-16T07:03:55.257Z,13.40
2022-10-16T07:06:24.462Z,13.40
2022-10-16T07:08:52.330Z,13.40
2022-10-16T07:11:22.275Z,13.50
2022-10-16T07:13:54.396Z,13.50
2022-10-16T07:16:26.290Z,13.50
2022-10-16T07:18:59.282Z,13.50
2022-10-16T07:21:29.949Z,13.50
2022-10-16T07:24:02.465Z,13.50
2022-10-16T07:26:32.140Z,13.50
2022-10-16T07:28:59.520Z,13.50
2022-10-16T07:31:28.382Z,13.50
2022-10-16T07:33:56.094Z,13.40
2022-10-16T07:36:23.449Z,13.40
2022-10-16T07:38:52.813Z,13.40
2022-10-16T07:41:22.461Z,13.40
2022-10-16T07:43:50.954Z,13.40
2022-10-16T07:46:18.779Z,13.40
2022-10-16T07:48:49.145Z,13.40
2022-10-16T07:51:18.544Z,13.40
2022-10-16T07:53:45.780Z,13.50
2022-10-16T07:56:13.152Z,13.50
2022-10-16T07:58:40.546Z,13.60
2022-10-16T08:01:09.873Z,13.60
2022-10-16T08:03:37.649Z,13.70
2022-10-16T08:06:05.656Z,13.80
2022-10-16T08:08:32.668Z,13.90
2022-10-16T08:10:59.563Z,14.00
2022-10-16T08:13:27.645Z,14.10
2022-10-16T08:15:55.718Z,14.10
2022-10-16T08:18:23.113Z,14.20
2022-10-16T08:20:56.855Z,14.20
2022-10-16T08:23:24.200Z,14.20
2022-10-16T08:25:51.152Z,14.30
2022-10-16T08:28:18.110Z,14.40
2022-10-16T08:30:47.051Z,14.50
2022-10-16T08:33:17.579Z,14.50
2022-10-16T08:35:55.983Z,14.50
2022-10-16T08:38:25.875Z,14.60
2022-10-16T08:40:56.847Z,14.70
2022-10-16T08:43:46.100Z,14.70
2022-10-16T08:46:37.290Z,14.60
2022-10-16T08:49:04.894Z,14.60
2022-10-16T08:51:37.075Z,14.60
2022-10-16T08:54:23.354Z,14.70
2022-10-16T08:56:50.310Z,14.80
2022-10-16T08:59:18.295Z,14.90
2022-10-16T09:01:52.346Z,14.80
2022-10-16T09:04:56.813Z,14.70
2022-10-16T09:07:42.326Z,14.70
2022-10-16T09:10:39.152Z,14.60
2022-10-16T09:13:20.814Z,14.60
2022-10-16T09:16:05.648Z,14.60
2022-10-16T09:18:41.222Z,14.50
2022-10-16T09:21:19.482Z,14.50
2022-10-16T09:23:46.744Z,14.50
2022-10-16T09:26:15.411Z,14.40
2022-10-16T09:28:42.479Z,14.40
2022-10-16T09:31:18.555Z,14.40
2022-10-16T09:33:49.184Z,14.40
2022-10-16T09:36:16.609Z,14.50
2022-10-16T09:38:43.590Z,14.50
2022-10-16T09:41:21.254Z,14.50
2022-10-16T09:43:50.776Z,14.60
2022-10-16T09:46:26.136Z,14.60
2022-10-16T09:48:57.147Z,14.60
2022-10-16T09:51:31.558Z,14.60
2022-10-16T09:54:03.816Z,14.50
2022-10-16T09:56:37.363Z,14.50
2022-10-16T09:59:12.817Z,14.50
2022-10-16T10:01:42.491Z,14.50
2022-10-16T10:04:10.007Z,14.50
2022-10-16T10:06:43.357Z,14.60
2022-10-16T10:09:34.043Z,14.60
2022-10-16T10:14:39.161Z,14.70
2022-10-16T10:17:06.035Z,14.70
2022-10-16T10:20:16.502Z,14.70
2022-10-16T10:22:48.399Z,14.70
2022-10-16T10:25:38.384Z,14.70
2022-10-16T10:28:17.212Z,14.70
2022-10-16T10:31:01.982Z,14.70
2022-10-16T10:34:02.899Z,14.70
2022-10-16T10:36:37.864Z,14.60
2022-10-16T10:39:26.479Z,14.70
2022-10-16T10:42:24.224Z,14.70
2022-10-16T10:45:09.914Z,14.60
2022-10-16T10:47:36.799Z,14.60
2022-10-16T10:50:26.239Z,14.60
2022-10-16T10:53:16.467Z,14.70
2022-10-16T10:56:01.481Z,14.70
2022-10-16T10:58:33.617Z,14.80
2022-10-16T11:01:15.586Z,14.80
2022-10-16T11:04:20.923Z,14.90
2022-10-16T11:06:56.782Z,14.90
2022-10-16T11:09:29.536Z,15.00
2022-10-16T11:12:03.505Z,15.10
2022-10-16T11:14:47.751Z,15.20
2022-10-16T11:17:30.347Z,15.20
2022-10-16T11:20:12.834Z,15.20
2022-10-16T11:22:46.243Z,15.10
2022-10-16T11:25:23.354Z,15.10
2022-10-16T11:28:14.542Z,15.00
2022-10-16T11:30:53.341Z,14.90
2022-10-16T11:33:34.286Z,14.90
2022-10-16T11:36:40.048Z,14.80
2022-10-16T11:39:19.552Z,14.70
2022-10-16T11:41:52.111Z,14.80
2022-10-16T11:44:42.338Z,14.70
2022-10-16T11:50:30.535Z,14.70
2022-10-16T11:53:21.887Z,14.70
2022-10-16T11:55:48.993Z,14.70
2022-10-16T11:58:28.351Z,14.70
2022-10-16T12:01:10.291Z,14.70
2022-10-16T12:03:55.200Z,14.70
2022-10-16T12:06:59.369Z,14.70
2022-10-16T12:09:32.410Z,14.60
2022-10-16T12:12:00.101Z,14.60
2022-10-16T12:15:11.329Z,14.60
2022-10-16T12:17:39.275Z,14.60
2022-10-16T12:20:18.317Z,14.50
2022-10-16T12:23:06.454Z,14.50
2022-10-16T12:25:40.268Z,14.60
2022-10-16T12:28:20.398Z,14.60
2022-10-16T12:30:59.325Z,14.70
2022-10-16T12:33:34.191Z,14.70
2022-10-16T12:36:04.897Z,14.80
2022-10-16T12:38:52.801Z,14.80
2022-10-16T12:41:31.614Z,14.80
2022-10-16T12:43:59.736Z,14.80
2022-10-16T12:46:34.199Z,14.80
2022-10-16T12:49:17.594Z,14.80
2022-10-16T12:51:44.916Z,14.80
2022-10-16T12:54:11.777Z,14.80
2022-10-16T12:57:30.619Z,14.80
2022-10-16T13:00:11.469Z,14.70
2022-10-16T13:03:23.978Z,14.60
2022-10-16T13:06:20.318Z,14.60
2022-10-16T13:08:57.158Z,14.60
2022-10-16T13:11:49.771Z,14.60
2022-10-16T13:14:35.180Z,14.50
2022-10-16T13:17:24.057Z,14.50
2022-10-16T13:20:00.008Z,14.50
2022-10-16T13:22:41.961Z,14.50
2022-10-16T13:25:23.985Z,14.50
2022-10-16T13:28:01.314Z,14.50
2022-10-16T13:30:31.691Z,14.60
2022-10-16T13:33:27.183Z,14.60
2022-10-16T13:35:56.261Z,14.60
2022-10-16T13:38:25.602Z,14.60
2022-10-16T13:41:16.672Z,14.60
2022-10-16T13:43:48.104Z,14.60
2022-10-16T13:46:21.161Z,14.60
2022-10-16T13:49:12.453Z,14.70
2022-10-16T13:51:39.365Z,14.70
2022-10-16T13:54:06.415Z,14.70
2022-10-16T13:56:34.800Z,14.70
2022-10-16T13:59:07.040Z,14.70
2022-10-16T14:01:43.533Z,14.70
2022-10-16T14:04:13.083Z,14.70
2022-10-16T14:06:46.409Z,14.60
2022-10-16T14:09:32.791Z,14.50
2022-10-16T14:12:09.289Z,14.50
2022-10-16T14:14:43.192Z,14.50
2022-10-16T14:17:19.718Z,14.40
2022-10-16T14:19:55.475Z,14.40
2022-10-16T14:22:30.619Z,14.40
2022-10-16T14:24:57.574Z,14.30
2022-10-16T14:27:32.063Z,14.30
2022-10-16T14:30:14.959Z,14.20
2022-10-16T14:32:43.591Z,14.20
2022-10-16T14:35:29.335Z,14.20
2022-10-16T14:37:58.144Z,14.20
2022-10-16T14:40:28.976Z,14.20
2022-10-16T14:42:56.508Z,14.20
2022-10-16T14:45:28.120Z,14.10
2022-10-16T14:48:19.716Z,14.10
2022-10-16T14:50:47.045Z,14.10
2022-10-16T14:53:14.624Z,14.20
2022-10-16T14:55:42.723Z,14.20
2022-10-16T14:58:18.847Z,14.20
2022-10-16T15:00:46.076Z,14.20
2022-10-16T15:03:12.966Z,14.20
2022-10-16T15:05:40.033Z,14.20
2022-10-16T15:08:06.946Z,14.20
2022-10-16T15:10:40.335Z,14.20
2022-10-16T15:13:07.228Z,14.20
2022-10-16T15:15:41.375Z,14.20
2022-10-16T15:18:08.493Z,14.10
2022-10-16T15:20:37.073Z,14.10
2022-10-16T15:23:23.540Z,14.10
2022-10-16T15:25:54.754Z,14.10
2022-10-16T15:28:23.224Z,14.10
2022-10-16T15:30:52.775Z,14.00
2022-10-16T15:33:23.886Z,14.00
2022-10-16T15:35:52.743Z,14.00
2022-10-16T15:38:21.799Z,13.90
2022-10-16T15:40:50.098Z,13.90
2022-10-16T15:43:17.172Z,13.90
2022-10-16T15:45:44.092Z,13.90
2022-10-16T15:48:14.725Z,13.90
2022-10-16T15:53:11.251Z,13.90
2022-10-16T15:55:38.936Z,13.90
2022-10-16T15:58:06.495Z,13.90
2022-10-16T16:00:33.432Z,13.90
2022-10-16T16:03:00.784Z,13.90
2022-10-16T16:05:28.590Z,13.90
2022-10-16T16:07:55.530Z,13.90
2022-10-16T16:10:22.669Z,13.80
2022-10-16T16:12:53.024Z,13.80
2022-10-16T16:15:23.844Z,13.80
2022-10-16T16:17:50.939Z,13.90
2022-10-16T16:20:18.042Z,13.90
2022-10-16T16:22:45.007Z,13.90
2022-10-16T16:25:12.147Z,13.90
2022-10-16T16:27:39.656Z,13.90
2022-10-16T16:30:16.756Z,13.90
2022-10-16T16:32:46.791Z,14.00
2022-10-16T16:35:13.662Z,14.00
2022-10-16T16:37:40.684Z,14.00
2022-10-16T16:40:07.746Z,14.00
2022-10-16T16:42:34.660Z,14.00
2022-10-16T16:45:10.690Z,14.00
2022-10-16T16:47:39.467Z,14.10
2022-10-16T16:50:08.063Z,14.10
2022-10-16T16:52:36.351Z,14.10
2022-10-16T16:55:03.485Z,14.20
2022-10-16T16:57:30.879Z,14.20
2022-10-16T16:59:58.003Z,14.20
2022-10-16T17:02:25.225Z,14.20
2022-10-16T17:04:52.165Z,14.20
2022-10-16T17:07:23.213Z,14.20
2022-10-16T17:09:51.289Z,14.30
2022-10-16T17:12:18.236Z,14.30
2022-10-16T17:14:45.169Z,14.30
2022-10-16T17:17:12.054Z,14.30
2022-10-16T17:19:39.019Z,14.30
2022-10-16T17:22:05.995Z,14.40
2022-10-16T17:24:32.919Z,14.40
2022-10-16T17:26:59.806Z,14.40
2022-10-16T17:29:26.794Z,14.40
2022-10-16T17:31:53.744Z,14.40
2022-10-16T17:34:20.710Z,14.40
2022-10-16T17:36:47.916Z,14.40
2022-10-16T17:39:19.705Z,14.40
2022-10-16T17:41:48.051Z,14.40
2022-10-16T17:44:20.185Z,14.40
2022-10-16T17:46:52.935Z,14.40
2022-10-16T17:49:21.152Z,14.40
2022-10-16T17:51:52.835Z,14.40
2022-10-16T17:54:20.487Z,14.30
2022-10-16T17:56:48.793Z,14.30
2022-10-16T17:59:15.867Z,14.30
2022-10-16T18:01:46.210Z,14.30
2022-10-16T18:04:16.663Z,14.30
2022-10-16T18:06:44.833Z,14.30
2022-10-16T18:09:15.137Z,14.30
2022-10-16T18:11:42.185Z,14.30
2022-10-16T18:14:09.167Z,14.20
2022-10-16T18:16:37.144Z,14.20
2022-10-16T18:19:04.110Z,14.10
2022-10-16T18:21:31.506Z,14.10
2022-10-16T18:23:59.736Z,14.10
2022-10-16T18:26:27.224Z,14.00
2022-10-16T18:28:56.269Z,14.00
2022-10-16T18:31:26.522Z,14.10
2022-10-16T18:33:54.432Z,14.00
2022-10-16T18:36:29.501Z,13.90
2022-10-16T18:38:57.613Z,13.90
2022-10-16T18:41:25.473Z,13.80
2022-10-16T18:43:52.703Z,13.80
2022-10-16T18:46:22.073Z,13.70
2022-10-16T18:48:51.201Z,13.70
2022-10-16T18:51:22.387Z,13.70
2022-10-16T18:53:51.660Z,13.60
2022-10-16T18:56:20.045Z,13.50
2022-10-16T18:58:50.442Z,13.50
2022-10-16T19:01:22.366Z,13.50
2022-10-16T19:03:54.197Z,13.40
2022-10-16T19:06:21.207Z,13.40
2022-10-16T19:08:48.126Z,13.40
2022-10-16T19:11:17.764Z,13.30
2022-10-16T19:13:46.083Z,13.30
2022-10-16T19:16:20.246Z,13.30
2022-10-16T19:18:49.221Z,13.30
2022-10-16T19:21:16.858Z,13.30
2022-10-16T19:23:43.890Z,13.30
2022-10-16T19:26:16.613Z,13.30
2022-10-16T19:28:44.637Z,13.20
2022-10-16T22:53:51.023Z,12.00
2022-10-16T22:56:20.291Z,12.10
2022-10-16T22:58:47.462Z,12.00
2022-10-16T23:01:16.052Z,12.00
2022-10-16T23:03:42.981Z,12.00
2022-10-16T23:06:10.034Z,11.90
2022-10-16T23:08:37.083Z,11.90
2022-10-16T23:11:10.035Z,11.90
2022-10-16T23:13:38.467Z,11.80
2022-10-16T23:16:07.011Z,11.70
2022-10-16T23:18:37.350Z,11.70
2022-10-16T23:21:09.040Z,11.70
2022-10-16T23:23:37.202Z,11.70
2022-10-16T23:26:09.791Z,11.70
2022-10-16T23:28:37.123Z,11.70
2022-10-16T23:31:05.495Z,11.60
2022-10-16T23:33:33.993Z,11.60
2022-10-16T23:36:05.176Z,11.60
2022-10-16T23:38:32.176Z,11.60
2022-10-16T23:40:59.134Z,11.60
2022-10-16T23:43:26.213Z,11.60
2022-10-16T23:45:53.110Z,11.60
2022-10-16T23:48:20.038Z,11.60
2022-10-16T23:50:47.104Z,11.60
2022-10-16T23:53:14.065Z,11.50
2022-10-16T23:55:40.987Z,11.50
2022-10-16T23:58:07.951Z,11.60
